createdAt,value
2019-01-14T00:04:43.145Z,10.60
2019-01-14T00:07:23.185Z,10.60
2019-01-14T00:10:04.465Z,10.40
2019-01-14T00:12:44.363Z,10.30
2019-01-14T00:15:25.417Z,10.20
2019-01-14T00:18:05.624Z,10.20
2019-01-14T00:20:45.834Z,10.20
2019-01-14T00:23:26.065Z,10.00
2019-01-14T00:26:06.172Z,10.00
2019-01-14T00:28:46.306Z,9.80
2019-01-14T00:31:26.305Z,9.70
2019-01-14T00:34:06.581Z,9.70
2019-01-14T00:36:46.682Z,9.70
2019-01-14T00:39:26.749Z,9.80
2019-01-14T00:41:54.420Z,9.90
2019-01-14T00:44:41.527Z,9.90
2019-01-14T00:47:21.817Z,9.80
2019-01-14T00:50:01.690Z,9.90
2019-01-14T00:52:41.793Z,10.10
2019-01-14T00:55:21.776Z,10.10
2019-01-14T00:58:01.898Z,10.00
2019-01-14T01:00:41.841Z,10.20
2019-01-14T01:03:23.168Z,10.10
2019-01-14T01:06:03.420Z,10.20
2019-01-14T01:08:44.156Z,10.20
2019-01-14T01:11:24.439Z,10.10
2019-01-14T01:14:04.410Z,10.00
2019-01-14T01:16:44.385Z,9.80
2019-01-14T01:19:24.837Z,9.80
2019-01-14T01:22:05.218Z,9.70
2019-01-14T01:24:45.129Z,9.70
2019-01-14T01:27:26.217Z,9.80
2019-01-14T01:30:06.464Z,9.90
2019-01-14T01:32:47.617Z,10.00
2019-01-14T01:35:28.149Z,10.00
2019-01-14T01:38:08.101Z,10.00
2019-01-14T01:40:48.160Z,10.00
2019-01-14T01:43:28.176Z,10.00
2019-01-14T01:46:08.185Z,9.80
2019-01-14T01:48:48.164Z,9.70
2019-01-14T01:51:32.466Z,9.80
2019-01-14T01:54:12.369Z,9.50
2019-01-14T01:56:52.686Z,9.40
2019-01-14T01:59:32.800Z,9.50
2019-01-14T02:02:13.032Z,9.30
2019-01-14T02:04:53.268Z,9.30
2019-01-14T02:07:33.157Z,9.60
2019-01-14T02:10:14.277Z,9.40
2019-01-14T02:12:54.421Z,9.40
2019-01-14T02:15:34.705Z,9.60
2019-01-14T02:18:02.321Z,9.60
2019-01-14T02:20:49.524Z,9.70
2019-01-14T02:26:10.161Z,9.40
2019-01-14T02:28:50.264Z,9.40
2019-01-14T02:31:30.292Z,9.60
2019-01-14T02:34:10.527Z,9.70
2019-01-14T02:36:50.602Z,9.70
2019-01-14T02:39:30.938Z,9.70
2019-01-14T02:42:11.081Z,9.80
2019-01-14T02:44:51.348Z,9.90
2019-01-14T02:47:31.265Z,9.80
2019-01-14T02:50:14.849Z,9.90
2019-01-14T02:52:54.961Z,9.80
2019-01-14T02:55:34.852Z,9.50
2019-01-14T02:58:14.788Z,9.50
2019-01-14T03:00:54.858Z,9.80
2019-01-14T03:03:35.149Z,9.70
2019-01-14T03:06:15.681Z,9.50
2019-01-14T03:08:55.635Z,9.60
2019-01-14T03:11:35.555Z,9.40
2019-01-14T03:14:15.656Z,9.30
2019-01-14T03:16:55.894Z,9.10
2019-01-14T03:19:36.096Z,8.90
2019-01-14T03:22:16.160Z,8.80
2019-01-14T03:24:57.968Z,9.00
2019-01-14T03:27:38.464Z,9.10
2019-01-14T03:30:18.782Z,9.10
2019-01-14T03:32:59.632Z,9.00
2019-01-14T03:35:39.887Z,8.80
2019-01-14T03:38:07.600Z,9.00
2019-01-14T03:43:48.165Z,8.60
2019-01-14T03:46:28.369Z,8.40
2019-01-14T03:49:08.265Z,8.40
2019-01-14T03:51:51.438Z,8.20
2019-01-14T03:54:31.777Z,8.10
2019-01-14T03:57:11.939Z,8.20
2019-01-14T03:59:52.098Z,7.90
2019-01-14T04:02:32.137Z,7.70
2019-01-14T04:05:12.539Z,7.70
2019-01-14T04:07:52.309Z,7.80
2019-01-14T04:10:32.318Z,7.80
2019-01-14T04:13:12.322Z,7.70
2019-01-14T04:15:52.519Z,7.80
2019-01-14T04:18:32.650Z,8.00
2019-01-14T04:21:12.850Z,8.00
2019-01-14T04:23:52.822Z,8.20
2019-01-14T04:26:32.798Z,8.30
2019-01-14T04:29:12.790Z,8.60
2019-01-14T04:31:52.765Z,8.70
2019-01-14T04:34:33.980Z,8.80
2019-01-14T04:37:21.329Z,8.90
2019-01-14T04:39:56.340Z,8.90
2019-01-14T04:42:36.420Z,9.00
2019-01-14T04:45:16.566Z,8.90
2019-01-14T04:47:56.658Z,9.00
2019-01-14T04:50:40.345Z,9.00
2019-01-14T04:53:21.049Z,9.00
2019-01-14T04:56:01.171Z,9.10
2019-01-14T04:58:41.485Z,9.10
2019-01-14T05:01:21.809Z,9.20
2019-01-14T05:07:11.973Z,8.90
2019-01-14T05:09:52.249Z,9.10
2019-01-14T05:12:32.261Z,9.10
2019-01-14T05:15:12.151Z,9.00
2019-01-14T05:17:52.566Z,9.20
2019-01-14T05:20:32.752Z,9.00
2019-01-14T05:23:12.990Z,9.10
2019-01-14T05:25:53.046Z,9.30
2019-01-14T05:28:33.209Z,9.30
2019-01-14T05:31:13.252Z,9.00
2019-01-14T05:33:53.388Z,9.10
2019-01-14T05:36:33.289Z,9.10
2019-01-14T05:39:13.689Z,9.10
2019-01-14T05:41:53.537Z,9.10
2019-01-14T05:44:33.921Z,9.20
2019-01-14T05:47:14.678Z,9.20
2019-01-14T05:49:54.830Z,9.20
2019-01-14T05:52:34.897Z,9.30
2019-01-14T05:55:14.937Z,9.20
2019-01-14T05:57:55.203Z,9.20
2019-01-14T06:04:04.672Z,9.00
2019-01-14T06:06:44.717Z,8.90
2019-01-14T06:09:25.112Z,8.90
2019-01-14T06:12:05.105Z,8.90
2019-01-14T06:14:45.537Z,9.00
2019-01-14T06:17:13.148Z,8.70
2019-01-14T06:22:39.353Z,8.60
2019-01-14T06:25:19.942Z,8.70
2019-01-14T06:28:00.204Z,8.60
2019-01-14T06:30:40.244Z,8.50
2019-01-14T06:33:20.153Z,8.60
2019-01-14T06:36:00.355Z,8.70
2019-01-14T06:38:40.521Z,8.70
2019-01-14T06:41:20.520Z,8.60
2019-01-14T06:47:05.848Z,8.60
2019-01-14T06:49:46.062Z,8.60
2019-01-14T06:52:26.460Z,8.50
2019-01-14T06:55:06.686Z,8.60
2019-01-14T06:57:50.263Z,8.70
2019-01-14T07:00:30.868Z,8.60
2019-01-14T07:03:11.120Z,8.50
2019-01-14T07:05:51.114Z,8.50
2019-01-14T07:08:31.065Z,8.40
2019-01-14T07:13:55.413Z,8.40
2019-01-14T07:16:35.554Z,8.40
2019-01-14T07:19:16.869Z,8.40
2019-01-14T07:21:56.721Z,8.40
2019-01-14T07:24:36.901Z,8.40
2019-01-14T07:27:17.481Z,8.20
2019-01-14T07:29:57.586Z,8.50
2019-01-14T07:32:37.687Z,8.60
2019-01-14T07:35:17.720Z,8.30
2019-01-14T07:37:57.763Z,8.40
2019-01-14T07:40:37.945Z,8.40
2019-01-14T07:43:17.968Z,8.50
2019-01-14T07:45:58.041Z,8.60
2019-01-14T07:48:38.222Z,8.50
2019-01-14T07:51:18.276Z,8.60
2019-01-14T07:53:58.597Z,8.60
2019-01-14T07:56:39.090Z,8.60
2019-01-14T07:59:21.486Z,8.50
2019-01-14T08:02:01.420Z,8.50
2019-01-14T08:04:41.498Z,8.40
2019-01-14T08:07:21.695Z,8.40
2019-01-14T08:10:01.460Z,8.40
2019-01-14T08:12:41.591Z,8.60
2019-01-14T08:15:21.711Z,8.70
2019-01-14T08:18:01.713Z,9.00
2019-01-14T08:20:41.681Z,8.90
2019-01-14T08:23:21.678Z,8.90
2019-01-14T08:26:01.737Z,9.00
2019-01-14T08:28:41.625Z,8.90
2019-01-14T08:31:21.630Z,8.90
2019-01-14T08:34:01.605Z,8.90
2019-01-14T08:36:41.710Z,8.90
2019-01-14T08:42:02.564Z,8.90
2019-01-14T08:44:43.399Z,8.80
2019-01-14T08:47:23.826Z,8.80
2019-01-14T08:50:03.944Z,8.60
2019-01-14T08:52:44.015Z,8.70
2019-01-14T08:55:23.949Z,8.80
2019-01-14T08:58:04.514Z,8.90
2019-01-14T09:00:44.261Z,8.90
2019-01-14T09:03:24.457Z,8.90
2019-01-14T09:06:04.410Z,8.90
2019-01-14T09:08:44.484Z,8.90
2019-01-14T09:11:24.701Z,8.80
2019-01-14T09:14:05.618Z,8.80
2019-01-14T09:16:45.682Z,8.80
2019-01-14T09:19:25.708Z,8.70
2019-01-14T09:22:05.957Z,8.70
2019-01-14T09:24:45.837Z,8.80
2019-01-14T09:27:26.153Z,8.90
2019-01-14T09:30:06.214Z,8.90
2019-01-14T09:32:46.213Z,9.00
2019-01-14T09:35:26.473Z,9.10
2019-01-14T09:38:06.493Z,8.90
2019-01-14T09:40:46.466Z,9.00
2019-01-14T09:43:26.548Z,9.00
2019-01-14T09:46:08.619Z,9.00
2019-01-14T09:48:48.833Z,8.90
2019-01-14T09:51:29.113Z,8.90
2019-01-14T09:54:09.206Z,9.10
2019-01-14T09:56:49.439Z,9.00
2019-01-14T09:59:29.573Z,9.20
2019-01-14T10:02:09.668Z,9.20
2019-01-14T10:04:49.753Z,9.20
2019-01-14T10:07:29.921Z,9.10
2019-01-14T10:10:09.968Z,9.10
2019-01-14T10:12:50.292Z,9.00
2019-01-14T10:15:30.324Z,9.10
2019-01-14T10:18:10.457Z,9.20
2019-01-14T10:20:50.429Z,9.20
2019-01-14T10:23:30.532Z,9.20
2019-01-14T10:29:21.638Z,9.40
2019-01-14T10:32:01.589Z,9.60
2019-01-14T10:34:41.661Z,9.30
2019-01-14T10:37:22.930Z,9.30
2019-01-14T10:40:03.020Z,9.20
2019-01-14T10:42:42.949Z,9.00
2019-01-14T10:45:16.076Z,9.00
2019-01-14T10:47:56.614Z,9.00
2019-01-14T10:50:36.729Z,9.10
2019-01-14T10:53:16.756Z,9.20
2019-01-14T10:55:56.782Z,9.30
2019-01-14T10:58:36.950Z,9.30
2019-01-14T11:01:20.116Z,9.40
2019-01-14T11:04:00.153Z,9.50
2019-01-14T11:06:40.526Z,9.60
2019-01-14T11:09:20.569Z,9.50
2019-01-14T11:12:00.843Z,9.40
2019-01-14T11:14:41.130Z,9.50
2019-01-14T11:17:21.193Z,9.40
2019-01-14T11:20:01.274Z,9.40
2019-01-14T11:22:41.391Z,9.30
2019-01-14T11:25:22.332Z,9.20
2019-01-14T11:28:02.541Z,9.20
2019-01-14T11:30:43.792Z,9.30
2019-01-14T11:33:23.968Z,9.20
2019-01-14T11:36:04.079Z,9.20
2019-01-14T11:38:44.032Z,9.30
2019-01-14T11:41:23.992Z,9.30
2019-01-14T11:44:04.109Z,9.20
2019-01-14T11:46:44.230Z,9.30
2019-01-14T11:49:24.293Z,9.20
2019-01-14T11:52:04.259Z,9.20
2019-01-14T11:54:44.257Z,9.30
2019-01-14T11:57:24.402Z,9.20
2019-01-14T12:00:04.989Z,9.40
2019-01-14T12:02:44.995Z,9.40
2019-01-14T12:05:24.925Z,9.50
2019-01-14T12:08:05.069Z,9.50
2019-01-14T12:10:45.416Z,9.80
2019-01-14T12:13:25.321Z,9.40
2019-01-14T12:16:05.719Z,9.40
2019-01-14T12:18:45.842Z,9.40
2019-01-14T12:21:26.038Z,9.40
2019-01-14T12:24:06.168Z,9.50
2019-01-14T12:26:46.321Z,9.50
2019-01-14T12:29:26.596Z,9.40
2019-01-14T12:32:07.045Z,9.30
2019-01-14T12:34:47.182Z,9.30
2019-01-14T12:37:27.476Z,9.40
2019-01-14T12:40:07.920Z,9.10
2019-01-14T12:42:47.987Z,8.50
2019-01-14T12:48:07.255Z,7.60
2019-01-14T12:50:48.326Z,7.30
2019-01-14T12:53:28.662Z,7.20
2019-01-14T12:56:08.923Z,6.70
2019-01-14T12:58:49.084Z,6.90
2019-01-14T13:01:29.169Z,6.90
2019-01-14T13:04:09.330Z,6.90
2019-01-14T13:06:49.435Z,7.10
2019-01-14T13:09:29.337Z,6.80
2019-01-14T13:12:09.724Z,6.80
2019-01-14T13:14:49.786Z,7.00
2019-01-14T13:17:30.102Z,6.90
2019-01-14T13:20:10.505Z,6.90
2019-01-14T13:22:50.385Z,7.00
2019-01-14T13:25:30.428Z,7.10
2019-01-14T13:28:10.437Z,7.20
2019-01-14T13:30:50.532Z,7.20
2019-01-14T13:33:31.046Z,7.20
2019-01-14T13:36:11.305Z,7.10
2019-01-14T13:38:51.229Z,7.10
2019-01-14T13:41:31.279Z,7.20
2019-01-14T13:44:11.432Z,7.20
2019-01-14T13:46:51.586Z,7.10
2019-01-14T13:49:32.051Z,7.30
2019-01-14T13:52:15.125Z,7.40
2019-01-14T13:54:55.418Z,7.50
2019-01-14T13:57:35.429Z,7.40
2019-01-14T14:00:15.489Z,7.50
2019-01-14T14:02:55.573Z,7.70
2019-01-14T14:05:35.846Z,7.50
2019-01-14T14:08:15.824Z,7.70
2019-01-14T14:10:56.070Z,7.80
2019-01-14T14:13:36.093Z,7.70
2019-01-14T14:16:16.516Z,7.80
2019-01-14T14:18:56.404Z,7.90
2019-01-14T14:21:36.637Z,7.90
2019-01-14T14:24:16.697Z,7.70
2019-01-14T14:26:56.871Z,7.60
2019-01-14T14:29:36.950Z,7.60
2019-01-14T14:32:17.450Z,7.90
2019-01-14T14:34:57.361Z,8.10
2019-01-14T14:37:37.570Z,8.00
2019-01-14T14:40:17.518Z,8.10
2019-01-14T14:42:57.614Z,8.20
2019-01-14T14:45:37.980Z,8.30
2019-01-14T14:48:18.261Z,8.40
2019-01-14T14:50:58.349Z,8.30
2019-01-14T14:53:38.481Z,8.30
2019-01-14T14:56:21.693Z,8.20
2019-01-14T14:58:49.413Z,8.30
2019-01-14T15:01:36.545Z,8.40
2019-01-14T15:04:17.260Z,8.70
2019-01-14T15:06:57.639Z,8.80
2019-01-14T15:09:38.345Z,8.80
2019-01-14T15:12:06.039Z,9.20
2019-01-14T15:14:45.909Z,9.40
2019-01-14T15:17:25.892Z,9.60
2019-01-14T15:20:06.177Z,9.80
2019-01-14T15:22:46.340Z,9.80
2019-01-14T15:25:26.345Z,9.70
2019-01-14T15:28:06.376Z,9.50
2019-01-14T15:30:46.493Z,9.30
2019-01-14T15:33:26.736Z,9.00
2019-01-14T15:36:06.815Z,9.00
2019-01-14T15:38:47.394Z,8.80
2019-01-14T15:41:28.087Z,8.50
2019-01-14T15:44:08.185Z,8.50
2019-01-14T15:46:48.210Z,8.40
2019-01-14T15:49:28.314Z,8.20
2019-01-14T15:52:08.496Z,8.40
2019-01-14T15:54:48.633Z,8.30
2019-01-14T15:57:28.908Z,7.90
2019-01-14T16:02:36.977Z,7.80
2019-01-14T16:05:17.108Z,7.70
2019-01-14T16:08:16.751Z,7.70
2019-01-14T16:11:19.017Z,7.70
2019-01-14T16:39:31.521Z,7.00
2019-01-14T16:42:31.109Z,7.10
2019-01-14T16:51:40.597Z,6.70
2019-01-14T16:58:07.603Z,6.70
2019-01-14T17:01:07.174Z,6.50
2019-01-14T17:48:06.959Z,5.60
2019-01-14T17:51:06.490Z,5.60
2019-01-14T17:53:46.349Z,6.00
2019-01-14T18:07:23.772Z,6.10
2019-01-14T18:10:23.497Z,6.20
2019-01-14T18:16:50.574Z,6.20
2019-01-14T18:19:50.068Z,6.20
2019-01-14T18:40:04.142Z,6.20
2019-01-14T18:43:03.638Z,6.30
2019-01-14T19:14:37.637Z,5.80
2019-01-14T19:17:37.497Z,6.00
2019-01-14T19:31:30.877Z,6.50
2019-01-14T19:34:30.673Z,6.60
2019-01-14T19:40:47.182Z,6.80
2019-01-14T19:43:27.442Z,6.60
2019-01-14T19:45:56.236Z,6.40
2019-01-14T20:06:34.517Z,6.20
2019-01-14T20:09:33.998Z,6.20
2019-01-14T20:33:59.005Z,6.40
2019-01-14T20:36:26.688Z,6.70
2019-01-14T20:39:49.424Z,6.50
2019-01-14T20:42:49.269Z,6.40
2019-01-14T21:03:53.378Z,6.30
2019-01-14T21:06:22.451Z,6.30
2019-01-14T21:08:50.164Z,6.30
2019-01-14T21:11:23.852Z,6.30
2019-01-14T21:13:47.453Z,6.30
2019-01-14T21:16:15.106Z,6.20
2019-01-14T21:18:42.755Z,6.10
2019-01-14T21:21:11.504Z,6.20
2019-01-14T21:23:41.306Z,6.00
2019-01-14T21:26:08.938Z,6.00
2019-01-14T21:28:36.688Z,6.00
2019-01-14T21:31:04.378Z,5.80
2019-01-14T21:33:32.017Z,5.70
2019-01-14T21:35:59.661Z,5.60
2019-01-14T21:38:28.135Z,5.50
2019-01-14T21:40:55.864Z,5.40
2019-01-14T21:43:23.848Z,5.30
2019-01-14T21:45:51.473Z,5.30
2019-01-14T21:48:19.149Z,5.20
2019-01-14T21:50:46.806Z,5.20
2019-01-14T21:53:14.408Z,5.20
2019-01-14T21:55:42.009Z,5.10
2019-01-14T21:58:09.809Z,5.20
2019-01-14T22:00:37.438Z,5.00
2019-01-14T22:03:05.084Z,5.10
2019-01-14T22:05:32.815Z,5.10
2019-01-14T22:08:00.436Z,5.10
2019-01-14T22:10:28.334Z,5.10
2019-01-14T22:12:55.973Z,5.10
2019-01-14T22:15:23.665Z,5.30
2019-01-14T22:17:51.337Z,5.10
2019-01-14T22:20:25.064Z,5.20
2019-01-14T22:22:52.793Z,5.30
2019-01-14T22:25:20.564Z,5.30
2019-01-14T22:27:48.190Z,5.20
2019-01-14T22:30:18.066Z,5.10
2019-01-14T22:32:45.702Z,5.10
2019-01-14T22:35:13.462Z,5.10
2019-01-14T22:37:41.077Z,5.10
2019-01-14T22:40:09.823Z,4.90
2019-01-14T22:42:37.706Z,4.90
2019-01-14T22:45:05.422Z,4.90
2019-01-14T22:47:33.130Z,5.20
2019-01-14T22:50:00.948Z,5.10
2019-01-14T22:52:28.588Z,5.10
2019-01-14T22:54:56.200Z,5.10
2019-01-14T22:57:23.936Z,5.10
2019-01-14T22:59:52.567Z,5.30
2019-01-14T23:02:20.165Z,5.30
2019-01-14T23:04:47.884Z,5.30
2019-01-14T23:07:15.508Z,5.40
2019-01-14T23:09:43.240Z,5.50
2019-01-14T23:12:10.861Z,5.60
2019-01-14T23:14:38.527Z,5.70
2019-01-14T23:17:06.140Z,5.70
2019-01-14T23:19:33.960Z,5.70
2019-01-14T23:22:01.604Z,5.90
2019-01-14T23:24:29.219Z,5.90
2019-01-14T23:26:56.928Z,6.00
2019-01-14T23:29:24.451Z,6.00
2019-01-14T23:31:52.057Z,6.00
2019-01-14T23:34:19.772Z,5.90
2019-01-14T23:36:47.419Z,5.80
2019-01-14T23:39:15.235Z,5.80
2019-01-14T23:41:42.843Z,5.80
2019-01-14T23:44:10.429Z,5.70
2019-01-14T23:46:38.364Z,5.80
2019-01-14T23:49:05.990Z,6.00
2019-01-14T23:51:33.589Z,6.00
2019-01-14T23:54:01.434Z,5.90
2019-01-14T23:56:29.020Z,6.10
2019-01-14T23:58:56.700Z,6.10
